Time;durP1;ratioP1;P1;durP2;ratioP2;P2;SDS_P1;SDS_P2;PMS_P1;PMS_P2;Temp;Humidity;BMP_temperature;BMP_pressure;BME280_temperature;BME280_humidity;BME280_pressure;Samples;Min_cycle;Max_cycle;Signal;HPM_P1;HPM_P2
2023/06/27 00:00:04;;;;;;;0.77;0.60;;;19.30;83.00;;;;;;5094297;28;20448;-79
2023/06/27 00:02:30;;;;;;;1.80;0.50;;;19.20;83.50;;;;;;5093888;28;20451;-79
2023/06/27 00:05:00;;;;;;;2.10;0.90;;;19.20;83.80;;;;;;5094198;28;20451;-79
2023/06/27 00:07:27;;;;;;;0.97;0.80;;;19.20;83.40;;;;;;5094114;28;20443;-79
2023/06/27 00:09:55;;;;;;;0.70;0.70;;;19.20;84.20;;;;;;5093686;28;20932;-79
2023/06/27 00:12:22;;;;;;;1.53;0.70;;;19.20;84.10;;;;;;5093967;28;20440;-79
2023/06/27 00:14:49;;;;;;;0.70;0.70;;;19.10;84.10;;;;;;5093763;28;20447;-79
2023/06/27 00:17:16;;;;;;;0.90;0.50;;;19.10;83.80;;;;;;5093665;28;20443;-79
2023/06/27 00:19:44;;;;;;;5.10;0.80;;;19.10;83.80;;;;;;5093922;28;20480;-79
2023/06/27 00:22:11;;;;;;;1.90;0.60;;;19.00;84.40;;;;;;5093662;28;20491;-79
2023/06/27 00:24:39;;;;;;;1.53;0.90;;;19.00;84.50;;;;;;5093886;28;20479;-79
2023/06/27 00:27:07;;;;;;;6.33;1.07;;;19.00;85.20;;;;;;5093847;28;20443;-79
2023/06/27 00:29:34;;;;;;;0.57;0.57;;;18.90;85.50;;;;;;5093836;28;20500;-79
2023/06/27 00:32:01;;;;;;;1.33;0.67;;;19.00;84.80;;;;;;5093785;28;20456;-79
2023/06/27 00:34:28;;;;;;;0.77;0.50;;;18.90;85.70;;;;;;5093797;28;20444;-79
2023/06/27 00:36:54;;;;;;;0.70;0.60;;;18.90;85.10;;;;;;5093458;28;20451;-79
2023/06/27 00:39:21;;;;;;;3.47;0.67;;;18.80;85.30;;;;;;5093572;28;20487;-79
2023/06/27 00:41:48;;;;;;;5.63;0.77;;;18.80;85.30;;;;;;5093676;28;20501;-79
2023/06/27 00:44:16;;;;;;;1.53;0.60;;;18.80;85.60;;;;;;5093656;28;20444;-79
2023/06/27 00:46:43;;;;;;;1.73;0.90;;;18.80;86.20;;;;;;5093564;28;20440;-79
2023/06/27 00:49:11;;;;;;;1.60;0.60;;;18.70;85.80;;;;;;5093490;28;20560;-79
2023/06/27 00:51:40;;;;;;;6.13;0.80;;;18.70;85.60;;;;;;5093418;28;20544;-79
2023/06/27 00:54:08;;;;;;;0.80;0.80;;;18.70;86.40;;;;;;5093137;28;20561;-79
2023/06/27 00:56:36;;;;;;;0.90;0.80;;;18.70;85.90;;;;;;5092982;28;20947;-79
2023/06/27 00:59:03;;;;;;;1.37;0.70;;;18.60;85.50;;;;;;5093180;28;20484;-79
2023/06/27 01:01:32;;;;;;;0.60;0.60;;;18.60;86.00;;;;;;5093366;28;20467;-79
2023/06/27 01:03:59;;;;;;;0.73;0.50;;;18.60;85.60;;;;;;5093798;28;20463;-79
2023/06/27 01:06:34;;;;;;;0.60;0.60;;;18.60;86.60;;;;;;5097515;28;20455;-79
2023/06/27 01:09:05;;;;;;;2.40;0.90;;;18.60;86.20;;;;;;5097148;28;20467;-79
2023/06/27 01:11:39;;;;;;;2.40;0.87;;;18.60;86.30;;;;;;5097504;28;20432;-79
2023/06/27 01:14:07;;;;;;;0.70;0.60;;;18.60;85.90;;;;;;5097172;28;20908;-79
2023/06/27 01:16:36;;;;;;;4.73;0.67;;;18.60;86.10;;;;;;5097052;28;20943;-79
2023/06/27 01:19:08;;;;;;;1.33;0.60;;;18.60;86.00;;;;;;5097278;28;20483;-79
2023/06/27 01:21:36;;;;;;;0.63;0.63;;;18.60;85.90;;;;;;5097530;28;20536;-79
2023/06/27 01:24:07;;;;;;;1.43;0.80;;;18.60;86.00;;;;;;5097265;28;20455;-79
2023/06/27 01:26:34;;;;;;;0.70;0.70;;;18.60;86.50;;;;;;5097028;28;20458;-79
2023/06/27 01:29:01;;;;;;;0.50;0.50;;;18.60;86.50;;;;;;5096812;28;20471;-79
2023/06/27 01:31:33;;;;;;;2.20;0.70;;;18.60;86.30;;;;;;5097163;28;20452;-79
2023/06/27 01:34:04;;;;;;;0.60;0.60;;;18.60;86.20;;;;;;5096905;28;20903;-79
2023/06/27 01:36:42;;;;;;;0.50;0.50;;;18.70;86.60;;;;;;5096817;28;20849;-79
2023/06/27 01:39:15;;;;;;;0.90;0.63;;;18.60;86.40;;;;;;5096972;28;20482;-79
2023/06/27 01:41:45;;;;;;;1.43;0.70;;;18.70;86.70;;;;;;5097033;28;20447;-79
2023/06/27 01:44:15;;;;;;;9.10;0.83;;;18.70;86.90;;;;;;5096985;28;20435;-79
2023/06/27 01:46:43;;;;;;;1.30;0.77;;;18.70;86.60;;;;;;5096940;28;20443;-79
2023/06/27 01:49:11;;;;;;;1.73;0.83;;;18.70;86.60;;;;;;5096478;28;21003;-79
2023/06/27 01:51:39;;;;;;;0.70;0.67;;;18.70;86.40;;;;;;5096788;28;20444;-79
2023/06/27 01:54:06;;;;;;;0.43;0.43;;;18.70;86.50;;;;;;5096441;28;20450;-80
2023/06/27 01:56:34;;;;;;;0.70;0.70;;;18.70;86.80;;;;;;5096688;28;20447;-80
2023/06/27 01:59:01;;;;;;;1.20;0.80;;;18.70;87.00;;;;;;5096559;28;20479;-79
2023/06/27 02:01:28;;;;;;;0.80;0.63;;;18.70;87.40;;;;;;5096596;28;20440;-79
2023/06/27 02:03:55;;;;;;;0.70;0.70;;;18.60;86.70;;;;;;5096250;28;20448;-79
2023/06/27 02:06:22;;;;;;;1.00;0.80;;;18.60;87.40;;;;;;5096511;28;20447;-79
2023/06/27 02:08:48;;;;;;;1.07;0.93;;;18.60;87.20;;;;;;5096128;28;20467;-80
2023/06/27 02:11:15;;;;;;;2.43;0.80;;;18.60;87.30;;;;;;5096395;28;20444;-79
2023/06/27 02:13:43;;;;;;;3.07;0.73;;;18.50;87.20;;;;;;5096391;28;20451;-79
2023/06/27 02:16:11;;;;;;;1.60;0.60;;;18.60;87.70;;;;;;5096268;28;20443;-79
2023/06/27 02:18:38;;;;;;;0.87;0.70;;;18.50;87.70;;;;;;5096185;28;20479;-79
2023/06/27 02:21:05;;;;;;;1.60;0.90;;;18.50;88.50;;;;;;5096016;28;20448;-79
2023/06/27 02:23:32;;;;;;;1.00;0.67;;;18.40;88.10;;;;;;5096256;28;20519;-79
2023/06/27 02:25:59;;;;;;;0.90;0.70;;;18.40;88.20;;;;;;5095867;28;20444;-79
2023/06/27 02:28:25;;;;;;;0.50;0.50;;;18.40;88.30;;;;;;5096040;28;20460;-79
2023/06/27 02:30:53;;;;;;;1.20;0.90;;;18.40;88.20;;;;;;5096081;28;20451;-79
2023/06/27 02:33:20;;;;;;;2.73;0.70;;;18.30;88.40;;;;;;5096004;28;20455;-79
2023/06/27 02:35:47;;;;;;;0.90;0.90;;;18.30;88.90;;;;;;5095985;28;20815;-79
2023/06/27 02:38:13;;;;;;;0.80;0.70;;;18.30;89.20;;;;;;5095797;28;20475;-79
2023/06/27 02:40:40;;;;;;;0.90;0.70;;;18.20;89.00;;;;;;5095900;28;20444;-79
2023/06/27 02:43:07;;;;;;;1.90;0.90;;;18.20;89.10;;;;;;5095529;28;20966;-79
2023/06/27 02:45:35;;;;;;;0.70;0.70;;;18.20;89.60;;;;;;5095479;28;20439;-79
2023/06/27 02:48:03;;;;;;;1.13;0.70;;;18.10;90.00;;;;;;5095331;28;20854;-79
2023/06/27 02:50:30;;;;;;;3.13;1.03;;;18.10;89.80;;;;;;5095733;28;20458;-79
2023/06/27 02:52:57;;;;;;;0.80;0.80;;;18.10;90.00;;;;;;5095660;28;20440;-79
2023/06/27 02:55:24;;;;;;;1.07;0.70;;;18.20;89.80;;;;;;5095306;28;20455;-79
2023/06/27 02:57:50;;;;;;;0.70;0.63;;;18.20;89.90;;;;;;5095505;28;20471;-79
2023/06/27 03:00:18;;;;;;;5.13;0.83;;;18.20;89.70;;;;;;5095142;28;20491;-79
2023/06/27 03:02:45;;;;;;;0.80;0.80;;;18.10;89.20;;;;;;5095440;28;20451;-79
2023/06/27 03:05:13;;;;;;;0.63;0.63;;;18.20;88.90;;;;;;5095411;28;20447;-79
2023/06/27 03:07:39;;;;;;;0.60;0.60;;;18.20;89.20;;;;;;5094986;28;20464;-79
2023/06/27 03:10:07;;;;;;;4.70;0.80;;;18.10;89.00;;;;;;5095288;28;20451;-79
2023/06/27 03:12:34;;;;;;;0.93;0.70;;;18.10;90.20;;;;;;5094861;28;20813;-79
2023/06/27 03:15:03;;;;;;;1.50;0.63;;;18.10;88.80;;;;;;5095216;28;20466;-79
2023/06/27 03:17:30;;;;;;;6.67;0.90;;;18.10;90.00;;;;;;5094755;28;20478;-79
2023/06/27 03:19:57;;;;;;;1.83;1.10;;;18.00;89.60;;;;;;5095027;28;20476;-79
2023/06/27 03:22:25;;;;;;;2.00;0.80;;;18.10;89.40;;;;;;5094551;28;20482;-79
2023/06/27 03:24:52;;;;;;;0.83;0.80;;;18.00;89.20;;;;;;5094976;28;20451;-79
2023/06/27 03:27:20;;;;;;;0.60;0.60;;;18.00;89.20;;;;;;5094362;28;20455;-79
2023/06/27 03:29:46;;;;;;;1.90;0.80;;;18.00;89.70;;;;;;5094860;28;20440;-79
2023/06/27 03:32:13;;;;;;;2.10;0.83;;;18.00;90.00;;;;;;5094751;28;20447;-79
2023/06/27 03:34:41;;;;;;;0.87;0.83;;;18.00;90.00;;;;;;5094842;28;20448;-79
2023/06/27 03:37:08;;;;;;;0.50;0.40;;;18.00;89.80;;;;;;5094699;28;20475;-79
2023/06/27 03:39:36;;;;;;;0.50;0.50;;;17.90;90.10;;;;;;5094585;28;20488;-79
2023/06/27 03:42:03;;;;;;;0.97;0.80;;;18.00;90.40;;;;;;5094614;28;20452;-79
2023/06/27 03:44:31;;;;;;;0.80;0.80;;;17.90;90.00;;;;;;5094310;28;20459;-79
2023/06/27 03:46:58;;;;;;;0.93;0.60;;;17.90;89.70;;;;;;5094545;28;20452;-79
2023/06/27 03:49:24;;;;;;;0.97;0.60;;;17.90;89.80;;;;;;5094083;28;20538;-79
2023/06/27 03:51:51;;;;;;;0.60;0.60;;;17.90;89.90;;;;;;5094413;28;20455;-79
2023/06/27 03:54:18;;;;;;;0.80;0.60;;;17.90;89.70;;;;;;5094043;28;20444;-79
2023/06/27 03:56:46;;;;;;;1.40;0.60;;;17.90;89.40;;;;;;5094451;28;20444;-79
2023/06/27 03:59:13;;;;;;;1.20;1.00;;;17.80;89.90;;;;;;5094146;28;20494;-79
2023/06/27 04:01:41;;;;;;;0.80;0.80;;;17.90;90.00;;;;;;5093960;28;20440;-79
2023/06/27 04:04:08;;;;;;;0.70;0.70;;;17.90;90.50;;;;;;5093960;28;20808;-79
2023/06/27 04:06:34;;;;;;;2.20;0.70;;;17.90;90.30;;;;;;5093883;28;20973;-79
2023/06/27 04:09:02;;;;;;;0.90;0.60;;;17.90;90.20;;;;;;5093767;28;21006;-79
2023/06/27 04:11:31;;;;;;;0.60;0.60;;;17.90;90.30;;;;;;5094056;28;20458;-79
2023/06/27 04:13:59;;;;;;;4.03;1.17;;;17.90;90.10;;;;;;5094095;28;20452;-79
2023/06/27 04:16:26;;;;;;;0.77;0.63;;;17.90;90.30;;;;;;5094036;28;20516;-79
2023/06/27 04:18:53;;;;;;;2.00;0.83;;;18.00;90.30;;;;;;5093770;28;20471;-79
2023/06/27 04:21:20;;;;;;;1.50;1.03;;;18.00;90.10;;;;;;5093691;28;20476;-79
2023/06/27 04:23:46;;;;;;;0.80;0.70;;;18.00;90.30;;;;;;5093991;28;20424;-79
2023/06/27 04:26:15;;;;;;;1.47;0.90;;;18.00;90.20;;;;;;5093894;28;20451;-79
2023/06/27 04:28:43;;;;;;;0.70;0.70;;;18.00;90.20;;;;;;5093803;28;20555;-79
2023/06/27 04:31:11;;;;;;;0.70;0.63;;;17.90;90.10;;;;;;5093515;28;20544;-79
2023/06/27 04:33:39;;;;;;;2.77;0.60;;;18.00;90.40;;;;;;5093723;28;20459;-79
2023/06/27 04:36:06;;;;;;;0.60;0.60;;;18.00;90.70;;;;;;5093460;28;20943;-79
2023/06/27 04:38:37;;;;;;;2.70;0.70;;;18.00;90.50;;;;;;5092912;28;20466;-79
2023/06/27 04:41:05;;;;;;;1.80;0.70;;;18.00;90.30;;;;;;5093632;28;20506;-79
2023/06/27 04:43:32;;;;;;;3.20;0.70;;;18.00;90.60;;;;;;5093649;28;20468;-79
2023/06/27 04:45:59;;;;;;;2.60;0.77;;;18.00;90.60;;;;;;5093348;28;20932;-79
2023/06/27 04:48:28;;;;;;;1.00;0.73;;;18.00;90.80;;;;;;5093468;28;20463;-79
2023/06/27 04:50:56;;;;;;;1.10;0.80;;;18.00;90.80;;;;;;5093456;28;20436;-79
2023/06/27 04:53:23;;;;;;;0.80;0.70;;;18.00;90.80;;;;;;5093472;28;20480;-79
2023/06/27 04:55:51;;;;;;;0.53;0.53;;;18.10;90.90;;;;;;5093090;28;20967;-79
2023/06/27 04:58:18;;;;;;;1.57;1.07;;;18.10;91.10;;;;;;5093371;28;20467;-79
2023/06/27 05:00:47;;;;;;;1.27;0.90;;;18.10;91.10;;;;;;5092990;28;20935;-79
2023/06/27 05:03:13;;;;;;;0.90;0.80;;;18.10;91.30;;;;;;5093292;28;20530;-79
2023/06/27 05:05:42;;;;;;;0.70;0.50;;;18.10;91.50;;;;;;5093081;28;20903;-79
2023/06/27 05:08:08;;;;;;;1.10;0.80;;;18.10;91.50;;;;;;5093315;28;20460;-79
2023/06/27 05:10:35;;;;;;;1.70;0.90;;;18.20;91.40;;;;;;5092900;28;20806;-79
2023/06/27 05:13:02;;;;;;;2.20;1.00;;;18.20;91.30;;;;;;5093284;28;20455;-79
2023/06/27 05:15:29;;;;;;;1.03;0.70;;;18.10;91.20;;;;;;5093279;28;20440;-80
2023/06/27 05:18:16;;;;;;;0.93;0.70;;;18.10;91.10;;;;;;5093131;28;21025;-80
2023/06/27 05:20:47;;;;;;;2.00;0.97;;;18.10;91.10;;;;;;5092797;28;20479;-79
2023/06/27 05:23:14;;;;;;;0.83;0.83;;;18.20;91.20;;;;;;5093145;28;20582;-79
2023/06/27 05:25:41;;;;;;;2.10;0.97;;;18.20;91.20;;;;;;5093220;28;20448;-79
2023/06/27 05:28:08;;;;;;;6.60;1.00;;;18.20;91.00;;;;;;5093388;28;20464;-79
2023/06/27 05:30:35;;;;;;;0.73;0.73;;;18.30;91.00;;;;;;5092893;28;20988;-79
2023/06/27 05:33:02;;;;;;;1.07;1.07;;;18.30;91.00;;;;;;5093177;28;20459;-79
2023/06/27 05:35:29;;;;;;;2.30;1.07;;;18.40;91.50;;;;;;5093205;28;20492;-79
2023/06/27 05:37:57;;;;;;;0.83;0.80;;;18.40;91.00;;;;;;5093071;28;20538;-79
2023/06/27 05:40:24;;;;;;;4.33;0.80;;;18.50;91.20;;;;;;5092939;28;20486;-79
2023/06/27 05:42:51;;;;;;;0.50;0.50;;;18.50;90.90;;;;;;5092788;28;20444;-79
2023/06/27 05:45:18;;;;;;;1.33;0.93;;;18.50;90.90;;;;;;5093052;28;20452;-79
2023/06/27 05:47:44;;;;;;;1.30;0.80;;;18.60;90.70;;;;;;5093017;28;20480;-79
2023/06/27 05:50:11;;;;;;;1.10;1.00;;;18.70;90.80;;;;;;5093854;28;20443;-79
2023/06/27 05:52:38;;;;;;;3.27;0.80;;;18.80;90.90;;;;;;5096878;28;20455;-79
2023/06/27 05:55:07;;;;;;;4.50;0.80;;;18.90;90.40;;;;;;5096439;28;20943;-79
2023/06/27 05:57:33;;;;;;;0.60;0.53;;;19.10;90.40;;;;;;5096670;28;20463;-79
2023/06/27 06:00:00;;;;;;;3.07;1.00;;;19.10;90.10;;;;;;5096809;28;20486;-79
2023/06/27 06:02:27;;;;;;;0.67;0.67;;;19.10;89.80;;;;;;5096647;28;20448;-79
2023/06/27 06:04:54;;;;;;;0.60;0.60;;;19.20;90.20;;;;;;5097142;28;20451;-79
2023/06/27 06:07:23;;;;;;;1.30;0.70;;;19.20;90.20;;;;;;5096523;28;20451;-79
2023/06/27 06:09:50;;;;;;;2.53;0.80;;;19.40;90.60;;;;;;5096162;28;21041;-79
2023/06/27 06:12:18;;;;;;;0.93;0.60;;;19.50;90.30;;;;;;5096477;28;20450;-79
2023/06/27 06:14:45;;;;;;;0.90;0.60;;;19.60;89.60;;;;;;5096675;28;20443;-79
2023/06/27 06:17:11;;;;;;;0.83;0.80;;;19.70;89.60;;;;;;5096202;28;20451;-79
2023/06/27 06:19:38;;;;;;;1.70;0.70;;;19.80;88.70;;;;;;5096287;28;20451;-79
2023/06/27 06:22:06;;;;;;;4.13;0.70;;;19.90;88.90;;;;;;5095906;28;20490;-79
2023/06/27 06:24:33;;;;;;;8.83;0.90;;;19.90;88.50;;;;;;5095983;28;20443;-79
2023/06/27 06:26:59;;;;;;;2.97;0.70;;;20.10;88.10;;;;;;5096176;28;20447;-80
2023/06/27 06:29:27;;;;;;;2.70;0.73;;;20.30;87.10;;;;;;5095779;28;20463;-79
2023/06/27 06:31:54;;;;;;;1.33;1.03;;;20.60;83.20;;;;;;5095792;28;20452;-79
2023/06/27 06:34:21;;;;;;;0.70;0.70;;;20.90;83.20;;;;;;5096085;28;20542;-80
2023/06/27 06:36:47;;;;;;;0.70;0.70;;;21.10;81.30;;;;;;5096037;28;20451;-80
2023/06/27 06:39:14;;;;;;;1.10;0.80;;;21.30;79.90;;;;;;5095881;28;20463;-80
2023/06/27 06:41:41;;;;;;;0.70;0.70;;;21.40;80.00;;;;;;5095595;28;20982;-80
2023/06/27 06:44:08;;;;;;;2.30;0.80;;;21.50;79.60;;;;;;5095834;28;20435;-80
2023/06/27 06:46:37;;;;;;;0.80;0.80;;;21.70;79.60;;;;;;5096450;28;20451;-80
2023/06/27 06:49:04;;;;;;;0.70;0.70;;;22.00;79.70;;;;;;5095657;28;20741;-79
2023/06/27 06:51:31;;;;;;;0.63;0.63;;;22.20;79.00;;;;;;5095787;28;20451;-80
2023/06/27 06:53:58;;;;;;;3.60;0.77;;;22.40;77.00;;;;;;5096215;28;20447;-80
2023/06/27 06:56:24;;;;;;;0.60;0.60;;;22.50;76.30;;;;;;5095623;28;20439;-80
2023/06/27 06:58:51;;;;;;;3.43;1.10;;;22.70;75.20;;;;;;5095198;28;20971;-79
2023/06/27 07:01:18;;;;;;;0.50;0.50;;;22.70;75.90;;;;;;5095026;28;20482;-79
2023/06/27 07:03:46;;;;;;;2.50;0.63;;;22.70;75.00;;;;;;5094959;28;20228;-79
2023/06/27 07:06:13;;;;;;;0.70;0.70;;;22.20;74.80;;;;;;5095159;28;20197;-80
2023/06/27 07:08:39;;;;;;;1.17;0.63;;;22.20;74.20;;;;;;5095340;28;20463;-80
2023/06/27 07:11:06;;;;;;;2.87;0.77;;;22.20;75.50;;;;;;5094978;28;20484;-80
2023/06/27 07:13:33;;;;;;;1.50;0.70;;;22.30;75.00;;;;;;5095323;28;20201;-80
2023/06/27 07:15:59;;;;;;;2.83;0.73;;;22.40;75.00;;;;;;5094903;28;20787;-80
2023/06/27 07:18:26;;;;;;;0.97;0.73;;;22.50;74.90;;;;;;5095129;28;20221;-80
2023/06/27 07:20:54;;;;;;;0.80;0.80;;;22.60;74.60;;;;;;5094917;28;20231;-80
2023/06/27 07:23:21;;;;;;;1.30;1.00;;;22.70;74.20;;;;;;5094822;28;20564;-80
2023/06/27 07:25:48;;;;;;;0.90;0.70;;;22.80;74.10;;;;;;5094717;28;20202;-80
2023/06/27 07:28:16;;;;;;;0.60;0.60;;;22.80;73.20;;;;;;5094942;28;20266;-80
2023/06/27 07:30:45;;;;;;;0.60;0.57;;;22.70;73.80;;;;;;5094687;28;20730;-80
2023/06/27 07:33:12;;;;;;;5.50;0.90;;;22.50;74.60;;;;;;5094886;28;20444;-80
2023/06/27 07:35:38;;;;;;;1.47;0.77;;;22.50;74.30;;;;;;5094589;28;20446;-80
2023/06/27 07:38:07;;;;;;;0.80;0.80;;;22.40;73.70;;;;;;5094452;28;20483;-80
2023/06/27 07:40:33;;;;;;;2.63;0.80;;;22.40;74.00;;;;;;5094698;28;20232;-80
2023/06/27 07:43:00;;;;;;;0.80;0.80;;;22.50;73.90;;;;;;5094530;28;20573;-80
2023/06/27 07:45:29;;;;;;;0.60;0.60;;;22.60;72.80;;;;;;5094508;28;20204;-80
2023/06/27 07:47:56;;;;;;;0.90;0.83;;;22.70;73.40;;;;;;5094589;28;20225;-79
2023/06/27 07:50:22;;;;;;;0.80;0.80;;;23.00;73.70;;;;;;5094558;28;20475;-79
2023/06/27 07:52:49;;;;;;;1.00;0.77;;;23.20;73.20;;;;;;5094526;28;20197;-80
2023/06/27 07:55:17;;;;;;;2.35;0.63;;;23.40;72.20;;;;;;5094453;28;20205;-79
2023/06/27 07:57:44;;;;;;;1.43;0.60;;;23.50;71.90;;;;;;5094396;28;20232;-79
2023/06/27 08:00:12;;;;;;;0.70;0.70;;;23.70;72.00;;;;;;5094608;28;20205;-80
2023/06/27 08:02:39;;;;;;;1.15;0.77;;;23.60;71.80;;;;;;5094404;28;20197;-79
2023/06/27 08:05:07;;;;;;;0.80;0.70;;;23.60;71.20;;;;;;5094321;28;20229;-79
2023/06/27 08:07:35;;;;;;;9.38;0.88;;;23.60;71.90;;;;;;5094443;28;20225;-80
2023/06/27 08:10:04;;;;;;;1.43;0.70;;;23.50;70.00;;;;;;5094221;28;20201;-80
2023/06/27 08:12:32;;;;;;;0.60;0.60;;;23.30;71.90;;;;;;5093910;28;20753;-79
2023/06/27 08:14:58;;;;;;;0.80;0.57;;;22.90;72.50;;;;;;5094062;28;20536;-79
2023/06/27 08:17:25;;;;;;;1.83;0.70;;;22.70;72.80;;;;;;5094042;28;20206;-79
2023/06/27 08:19:52;;;;;;;11.43;1.23;;;22.50;73.50;;;;;;5094129;28;20182;-79
2023/06/27 08:22:19;;;;;;;2.30;1.17;;;22.30;75.00;;;;;;5093463;28;20487;-79
2023/06/27 08:24:45;;;;;;;0.80;0.80;;;22.40;75.40;;;;;;5093981;28;20455;-79
2023/06/27 08:27:12;;;;;;;0.95;0.88;;;22.90;75.40;;;;;;5093851;28;20439;-80
2023/06/27 08:29:41;;;;;;;1.35;0.70;;;23.90;74.10;;;;;;5093932;28;20205;-80
2023/06/27 08:32:07;;;;;;;0.80;0.80;;;25.00;69.80;;;;;;5093701;28;20231;-80
2023/06/27 08:34:38;;;;;;;0.63;0.63;;;25.60;69.70;;;;;;5094051;28;20204;-80
2023/06/27 08:37:05;;;;;;;1.02;0.70;;;25.90;67.60;;;;;;5094121;28;20192;-80
2023/06/27 08:39:32;;;;;;;0.70;0.70;;;26.50;66.40;;;;;;5093664;28;20217;-79
2023/06/27 08:41:59;;;;;;;1.10;0.70;;;26.70;65.40;;;;;;5093686;28;20572;-80
2023/06/27 08:44:26;;;;;;;1.00;0.70;;;26.60;66.40;;;;;;5093904;28;20197;-80
2023/06/27 08:46:57;;;;;;;1.50;0.70;;;26.50;65.10;;;;;;5093867;28;20197;-80
2023/06/27 08:49:27;;;;;;;1.05;0.75;;;26.20;65.50;;;;;;5093589;28;20303;-80
2023/06/27 08:51:58;;;;;;;1.95;0.88;;;25.80;65.70;;;;;;5093309;28;20178;-80
2023/06/27 08:54:32;;;;;;;0.82;0.80;;;25.40;66.10;;;;;;5093665;28;20193;-80
2023/06/27 08:57:01;;;;;;;1.23;0.80;;;24.90;66.90;;;;;;5093665;28;20191;-80
2023/06/27 08:59:35;;;;;;;1.05;0.90;;;24.90;68.20;;;;;;5093421;28;20221;-80
2023/06/27 09:02:11;;;;;;;4.30;0.90;;;25.00;68.60;;;;;;5093748;28;20244;-80
2023/06/27 09:04:41;;;;;;;0.70;0.70;;;24.90;67.00;;;;;;5093154;28;20193;-80
2023/06/27 09:07:10;;;;;;;0.77;0.60;;;24.80;67.20;;;;;;5093159;28;20277;-80
2023/06/27 09:09:38;;;;;;;0.80;0.80;;;24.70;68.10;;;;;;5093081;28;20259;-80
2023/06/27 09:12:06;;;;;;;0.60;0.60;;;24.60;68.90;;;;;;5093075;28;20204;-80
2023/06/27 09:14:37;;;;;;;6.63;1.25;;;24.40;68.50;;;;;;5093064;28;20197;-80
2023/06/27 09:17:06;;;;;;;0.82;0.82;;;24.20;68.50;;;;;;5093037;28;20660;-80
2023/06/27 09:19:36;;;;;;;0.80;0.75;;;24.00;68.90;;;;;;5093257;28;20308;-80
2023/06/27 09:22:05;;;;;;;1.02;0.93;;;23.80;68.70;;;;;;5092933;28;20239;-80
2023/06/27 09:24:32;;;;;;;0.82;0.82;;;24.00;69.50;;;;;;5093022;28;20204;-80
2023/06/27 09:27:00;;;;;;;0.75;0.75;;;23.90;69.20;;;;;;5097171;28;20246;-80
2023/06/27 09:29:33;;;;;;;3.63;0.85;;;23.90;69.70;;;;;;5097013;28;20308;-79
2023/06/27 09:32:09;;;;;;;2.25;1.08;;;23.80;69.20;;;;;;5097028;28;20336;-79
2023/06/27 09:34:37;;;;;;;3.67;0.77;;;23.80;69.50;;;;;;5096864;28;20208;-79
2023/06/27 09:37:06;;;;;;;3.10;1.70;;;23.70;70.60;;;;;;5096845;28;20201;-80
2023/06/27 09:39:34;;;;;;;0.90;0.80;;;23.50;70.30;;;;;;5096754;28;20236;-79
2023/06/27 09:42:05;;;;;;;0.98;0.98;;;23.40;70.30;;;;;;5096647;28;20209;-80
2023/06/27 09:44:33;;;;;;;1.13;1.10;;;23.40;70.20;;;;;;5096845;28;20238;-79
2023/06/27 09:47:01;;;;;;;2.55;0.90;;;23.30;68.20;;;;;;5096957;28;20208;-80
2023/06/27 09:49:31;;;;;;;0.80;0.80;;;23.30;68.00;;;;;;5096834;28;20233;-79
2023/06/27 09:51:59;;;;;;;1.75;1.10;;;23.40;69.60;;;;;;5096556;28;20209;-79
2023/06/27 09:54:26;;;;;;;1.00;0.90;;;23.50;68.90;;;;;;5097057;28;20208;-79
2023/06/27 09:56:59;;;;;;;0.70;0.70;;;23.60;68.40;;;;;;5097003;28;20202;-79
2023/06/27 09:59:27;;;;;;;1.45;0.85;;;23.80;67.50;;;;;;5096376;28;20260;-79
2023/06/27 10:01:55;;;;;;;1.00;0.90;;;23.80;67.70;;;;;;5096258;28;20312;-79
2023/06/27 10:04:24;;;;;;;1.08;1.02;;;23.90;67.30;;;;;;5096286;28;20205;-79
2023/06/27 10:06:54;;;;;;;0.80;0.80;;;24.00;67.60;;;;;;5096234;28;20240;-79
2023/06/27 10:09:23;;;;;;;1.55;1.00;;;24.10;69.40;;;;;;5096152;28;20700;-79
2023/06/27 10:11:51;;;;;;;3.88;1.30;;;24.00;68.50;;;;;;5096177;28;20669;-80
2023/06/27 10:14:20;;;;;;;0.82;0.80;;;23.90;68.20;;;;;;5096134;28;20647;-79
2023/06/27 10:16:49;;;;;;;0.98;0.77;;;24.00;68.90;;;;;;5096117;28;20703;-80
2023/06/27 10:19:17;;;;;;;2.53;0.85;;;24.10;66.10;;;;;;5096201;28;20231;-80
2023/06/27 10:21:48;;;;;;;2.35;1.00;;;24.00;66.50;;;;;;5095328;28;20241;-80
2023/06/27 10:24:19;;;;;;;1.00;0.95;;;23.90;67.00;;;;;;5096055;28;20239;-80
2023/06/27 10:26:58;;;;;;;0.85;0.80;;;23.90;67.70;;;;;;5096039;28;20228;-80
2023/06/27 10:29:32;;;;;;;1.17;0.70;;;23.80;67.60;;;;;;5095875;28;20221;-79
2023/06/27 10:32:00;;;;;;;0.70;0.70;;;23.90;68.70;;;;;;5095805;28;20192;-80
2023/06/27 10:34:28;;;;;;;0.73;0.73;;;23.80;69.00;;;;;;5096057;28;20639;-80
2023/06/27 10:37:02;;;;;;;1.02;0.93;;;23.80;69.20;;;;;;5094296;28;20227;-80
2023/06/27 10:39:32;;;;;;;2.05;0.85;;;24.10;69.60;;;;;;5095549;28;20261;-80
2023/06/27 10:42:04;;;;;;;1.13;1.02;;;24.40;68.50;;;;;;5095564;28;20221;-80
2023/06/27 10:44:37;;;;;;;0.80;0.80;;;24.60;68.70;;;;;;5095464;28;20204;-80
2023/06/27 10:47:27;;;;;;;1.00;1.00;;;24.70;66.70;;;;;;5096462;28;20197;-80
2023/06/27 10:50:01;;;;;;;1.92;0.90;;;24.70;66.20;;;;;;5095715;28;20292;-80
2023/06/27 10:52:28;;;;;;;1.60;0.80;;;24.70;65.10;;;;;;5095789;28;20206;-80
2023/06/27 10:55:23;;;;;;;1.45;0.82;;;24.60;66.20;;;;;;5095386;28;20237;-81
2023/06/27 10:58:06;;;;;;;2.67;0.82;;;24.50;68.10;;;;;;5095744;28;20695;-80
2023/06/27 11:00:34;;;;;;;0.85;0.80;;;24.40;68.00;;;;;;5095592;28;20254;-80
2023/06/27 11:03:06;;;;;;;1.88;0.80;;;24.40;68.60;;;;;;5095408;28;20308;-80
2023/06/27 11:05:49;;;;;;;1.00;0.73;;;24.40;67.60;;;;;;5095466;28;20183;-80
2023/06/27 11:08:18;;;;;;;2.60;0.80;;;24.50;67.30;;;;;;5095283;28;20302;-80
2023/06/27 11:11:04;;;;;;;0.70;0.70;;;24.40;67.50;;;;;;5095227;28;20190;-80
2023/06/27 11:13:33;;;;;;;2.80;0.90;;;24.30;67.80;;;;;;5095058;28;20194;-80
2023/06/27 11:16:02;;;;;;;1.80;0.90;;;24.30;69.10;;;;;;5094925;28;20232;-80
2023/06/27 11:18:32;;;;;;;1.95;0.80;;;24.50;69.70;;;;;;5094830;28;20218;-80
2023/06/27 11:21:00;;;;;;;1.88;0.80;;;24.60;68.50;;;;;;5094598;28;20190;-80
2023/06/27 11:23:28;;;;;;;1.00;1.00;;;24.60;67.80;;;;;;5094804;28;20193;-80
2023/06/27 11:25:57;;;;;;;0.77;0.77;;;24.60;68.50;;;;;;5094756;28;20209;-80
2023/06/27 11:28:25;;;;;;;1.23;1.00;;;24.50;67.40;;;;;;5094843;28;20228;-80
2023/06/27 11:30:59;;;;;;;0.90;0.90;;;24.40;68.80;;;;;;5094616;28;20209;-80
2023/06/27 11:33:27;;;;;;;1.10;1.00;;;24.40;68.30;;;;;;5094701;28;20191;-80
2023/06/27 11:36:00;;;;;;;2.05;0.90;;;24.40;68.80;;;;;;5094600;28;20293;-79
2023/06/27 11:38:33;;;;;;;0.80;0.80;;;24.40;68.50;;;;;;5094781;28;20257;-80
2023/06/27 11:41:02;;;;;;;0.98;0.80;;;24.40;68.10;;;;;;5094502;28;20194;-80
2023/06/27 11:43:45;;;;;;;0.90;0.70;;;24.40;68.40;;;;;;5094354;28;20225;-79
2023/06/27 11:46:20;;;;;;;1.33;0.90;;;24.30;68.40;;;;;;5094927;28;20561;-80
2023/06/27 11:48:49;;;;;;;0.80;0.80;;;24.40;69.00;;;;;;5094242;28;20225;-80
2023/06/27 11:51:17;;;;;;;1.85;1.15;;;24.50;68.80;;;;;;5094249;28;20209;-80
2023/06/27 11:53:53;;;;;;;1.00;0.95;;;24.50;67.20;;;;;;5094247;28;20205;-80
2023/06/27 11:56:23;;;;;;;1.02;0.65;;;24.50;67.00;;;;;;5094215;28;20185;-80
2023/06/27 11:58:56;;;;;;;0.95;0.70;;;24.40;67.60;;;;;;5094065;28;20221;-79
2023/06/27 12:01:27;;;;;;;1.00;0.90;;;24.30;68.00;;;;;;5094002;28;20182;-80
2023/06/27 12:03:55;;;;;;;0.80;0.80;;;24.30;68.60;;;;;;5094332;28;20217;-79
2023/06/27 12:06:27;;;;;;;0.80;0.80;;;24.40;68.90;;;;;;5094299;28;20241;-80
2023/06/27 12:08:57;;;;;;;1.08;0.82;;;24.50;68.10;;;;;;5093869;28;20221;-80
2023/06/27 12:11:36;;;;;;;1.33;0.73;;;24.70;68.50;;;;;;5093989;28;20259;-80
2023/06/27 12:14:04;;;;;;;0.95;0.70;;;24.80;67.00;;;;;;5094216;28;20189;-80
2023/06/27 12:16:33;;;;;;;1.10;1.00;;;24.90;68.60;;;;;;5093982;28;20228;-80
2023/06/27 12:19:09;;;;;;;1.73;1.08;;;24.90;67.50;;;;;;5094017;28;20685;-80
2023/06/27 12:21:43;;;;;;;1.30;1.20;;;25.00;68.50;;;;;;5093448;28;20233;-80
2023/06/27 12:24:10;;;;;;;1.00;0.90;;;25.00;67.60;;;;;;5093732;28;20193;-80
2023/06/27 12:26:45;;;;;;;0.98;0.98;;;25.10;69.10;;;;;;5093624;28;20229;-80
2023/06/27 12:29:12;;;;;;;1.15;0.80;;;25.30;68.60;;;;;;5093565;28;20700;-80
2023/06/27 12:31:41;;;;;;;1.15;1.05;;;25.40;66.60;;;;;;5093570;28;20208;-80
2023/06/27 12:34:10;;;;;;;1.13;1.00;;;25.40;66.50;;;;;;5093787;28;20322;-80
2023/06/27 12:36:37;;;;;;;1.52;1.00;;;25.30;67.10;;;;;;5093817;28;20209;-80
2023/06/27 12:39:05;;;;;;;2.80;1.10;;;25.20;67.30;;;;;;5094185;28;20221;-80
2023/06/27 12:41:33;;;;;;;2.50;0.85;;;25.10;67.70;;;;;;5093713;28;20181;-81
2023/06/27 12:44:02;;;;;;;0.98;0.98;;;25.10;67.50;;;;;;5093335;28;20205;-79
2023/06/27 12:46:35;;;;;;;2.53;0.98;;;25.00;67.80;;;;;;5093646;28;20209;-80
2023/06/27 12:49:02;;;;;;;1.00;0.80;;;24.90;68.00;;;;;;5093247;28;20222;-80
2023/06/27 12:51:30;;;;;;;2.97;1.10;;;24.90;68.10;;;;;;5093673;28;20190;-80
2023/06/27 12:53:58;;;;;;;2.60;1.30;;;24.80;68.40;;;;;;5093251;28;20212;-80